Time;durP1;ratioP1;P1;durP2;ratioP2;P2;SDS_P1;SDS_P2;PMS_P1;PMS_P2;Temp;Humidity;BMP_temperature;BMP_pressure;BME280_temperature;BME280_humidity;BME280_pressure;Samples;Min_cycle;Max_cycle;Signal;HPM_P1;HPM_P2
2024/04/05 00:00:39;;;;;;;6.00;1.02;;;;;;;;;;4977496;28;100133;-42
2024/04/05 00:03:04;;;;;;;9.93;1.13;;;;;;;;;;4983734;28;100218;-43
2024/04/05 00:05:30;;;;;;;7.93;1.15;;;;;;;;;;4978491;28;99721;-42
2024/04/05 00:07:55;;;;;;;9.05;1.05;;;;;;;;;;4974104;28;101555;-42
2024/04/05 00:10:20;;;;;;;11.45;1.30;;;;;;;;;;4977152;28;100065;-42
2024/04/05 00:12:46;;;;;;;8.77;0.80;;;;;;;;;;4976916;28;99988;-49
2024/04/05 00:15:12;;;;;;;5.00;1.00;;;;;;;;;;4974420;28;100264;-49
2024/04/05 00:17:37;;;;;;;5.10;0.80;;;;;;;;;;4981405;28;100282;-45
2024/04/05 00:20:03;;;;;;;5.35;0.93;;;;;;;;;;4979795;28;99770;-45
2024/04/05 00:22:28;;;;;;;6.60;0.90;;;;;;;;;;4972921;28;100231;-49
2024/04/05 00:24:56;;;;;;;6.18;0.80;;;;;;;;;;4974354;28;100229;-49
2024/04/05 00:27:22;;;;;;;7.85;0.90;;;;;;;;;;4972356;28;100176;-45
2024/04/05 00:29:48;;;;;;;4.53;0.90;;;;;;;;;;4980920;28;100301;-45
2024/04/05 00:32:13;;;;;;;6.30;1.02;;;;;;;;;;4974673;28;100232;-45
2024/04/05 00:34:38;;;;;;;8.98;0.95;;;;;;;;;;4981499;28;100238;-45
2024/04/05 00:37:04;;;;;;;5.32;1.25;;;;;;;;;;4974670;28;101884;-45
2024/04/05 00:39:29;;;;;;;3.67;0.85;;;;;;;;;;4975716;28;99733;-45
2024/04/05 00:41:54;;;;;;;8.82;1.00;;;;;;;;;;4977452;28;103177;-45
2024/04/05 00:44:21;;;;;;;6.90;0.90;;;;;;;;;;4969489;28;100106;-45
2024/04/05 00:46:47;;;;;;;6.78;0.70;;;;;;;;;;4983533;28;100065;-45
2024/04/05 00:49:13;;;;;;;6.05;0.95;;;;;;;;;;4979498;28;100319;-45
2024/04/05 00:51:38;;;;;;;5.88;0.70;;;;;;;;;;4974270;28;100084;-45
2024/04/05 00:54:05;;;;;;;6.47;0.80;;;;;;;;;;4969473;28;100133;-44
2024/04/05 00:56:32;;;;;;;6.50;0.70;;;;;;;;;;4949195;28;102902;-45
2024/04/05 00:58:58;;;;;;;4.25;0.68;;;;;;;;;;4974815;28;99884;-45
2024/04/05 01:01:23;;;;;;;6.47;0.88;;;;;;;;;;4974914;28;100279;-44
2024/04/05 01:03:48;;;;;;;4.95;1.08;;;;;;;;;;4973386;28;100080;-44
2024/04/05 01:06:14;;;;;;;3.33;0.95;;;;;;;;;;4979869;28;100390;-44
2024/04/05 01:08:39;;;;;;;5.35;0.90;;;;;;;;;;4954392;28;101426;-43
2024/04/05 01:11:05;;;;;;;4.28;0.52;;;;;;;;;;4982238;28;100095;-43
2024/04/05 01:13:30;;;;;;;6.13;0.70;;;;;;;;;;4970281;28;100159;-44
2024/04/05 01:15:55;;;;;;;2.60;0.50;;;;;;;;;;4976381;28;99959;-44
2024/04/05 01:18:21;;;;;;;4.82;0.50;;;;;;;;;;4969503;28;99695;-44
2024/04/05 01:20:50;;;;;;;5.47;0.70;;;;;;;;;;4981438;28;100213;-44
2024/04/05 01:23:17;;;;;;;1.50;0.60;;;;;;;;;;4976499;28;100056;-44
2024/04/05 01:25:42;;;;;;;4.47;0.60;;;;;;;;;;4970344;28;99758;-44
2024/04/05 01:28:13;;;;;;;2.80;0.50;;;;;;;;;;4974608;28;100152;-44
2024/04/05 01:30:38;;;;;;;2.95;0.80;;;;;;;;;;4980943;28;99980;-44
2024/04/05 01:33:04;;;;;;;5.90;0.70;;;;;;;;;;4974747;28;100562;-44
2024/04/05 01:35:29;;;;;;;4.45;0.68;;;;;;;;;;4974335;28;100092;-44
2024/04/05 01:37:56;;;;;;;2.88;0.80;;;;;;;;;;4980974;28;100275;-43
2024/04/05 01:40:22;;;;;;;5.57;0.73;;;;;;;;;;4977975;28;100187;-44
2024/04/05 01:42:47;;;;;;;4.35;0.73;;;;;;;;;;4977159;28;101309;-44
2024/04/05 01:45:13;;;;;;;4.22;0.57;;;;;;;;;;4979594;28;99817;-44
2024/04/05 01:47:38;;;;;;;8.60;1.10;;;;;;;;;;4967475;28;100203;-44
2024/04/05 01:50:05;;;;;;;5.45;0.47;;;;;;;;;;4975861;28;100423;-44
2024/04/05 01:52:30;;;;;;;5.10;0.70;;;;;;;;;;4974058;28;100393;-44
2024/04/05 01:54:56;;;;;;;4.70;0.55;;;;;;;;;;4978773;28;100153;-44
2024/04/05 01:57:22;;;;;;;5.03;1.25;;;;;;;;;;4975839;28;100304;-44
2024/04/05 01:59:53;;;;;;;4.68;0.90;;;;;;;;;;4977894;28;100210;-43
2024/04/05 02:02:19;;;;;;;5.45;0.75;;;;;;;;;;4933568;28;101919;-41
2024/04/05 02:04:44;;;;;;;6.90;0.80;;;;;;;;;;4954649;28;100283;-44
2024/04/05 02:07:10;;;;;;;3.90;0.40;;;;;;;;;;4984061;28;101295;-44
2024/04/05 02:09:35;;;;;;;6.40;0.50;;;;;;;;;;4978620;28;99987;-44
2024/04/05 02:12:01;;;;;;;5.20;0.55;;;;;;;;;;4987064;28;100011;-44
2024/04/05 02:14:27;;;;;;;6.15;0.60;;;;;;;;;;4973143;28;100154;-44
2024/04/05 02:16:55;;;;;;;4.88;0.50;;;;;;;;;;4974370;28;102164;-44
2024/04/05 02:19:21;;;;;;;5.15;0.55;;;;;;;;;;4976838;28;100312;-43
2024/04/05 02:21:46;;;;;;;2.47;0.50;;;;;;;;;;4975154;28;100064;-44
2024/04/05 02:24:11;;;;;;;3.85;0.47;;;;;;;;;;4970137;28;99660;-43
2024/04/05 02:26:40;;;;;;;3.67;0.63;;;;;;;;;;4981554;28;104496;-43
2024/04/05 02:29:05;;;;;;;6.35;0.98;;;;;;;;;;4978678;28;102376;-44
2024/04/05 02:31:30;;;;;;;4.85;0.40;;;;;;;;;;4975604;28;100118;-46
2024/04/05 02:33:56;;;;;;;3.92;0.50;;;;;;;;;;4985294;28;100327;-44
2024/04/05 02:36:21;;;;;;;5.13;0.50;;;;;;;;;;4974111;28;99960;-43
2024/04/05 02:38:47;;;;;;;6.50;0.50;;;;;;;;;;4976840;28;100657;-44
2024/04/05 02:41:12;;;;;;;9.13;0.77;;;;;;;;;;4981420;28;100384;-44
2024/04/05 02:43:38;;;;;;;4.53;1.05;;;;;;;;;;4980629;28;100268;-44
2024/04/05 02:46:03;;;;;;;4.45;0.40;;;;;;;;;;4980600;28;100507;-44
2024/04/05 02:48:29;;;;;;;6.18;0.57;;;;;;;;;;4975962;28;100247;-44
2024/04/05 02:50:54;;;;;;;3.92;0.40;;;;;;;;;;4976547;28;99963;-44
2024/04/05 02:53:20;;;;;;;6.18;0.52;;;;;;;;;;4976490;28;100958;-44
2024/04/05 02:55:45;;;;;;;3.67;0.40;;;;;;;;;;4980239;28;100987;-44
2024/04/05 02:58:10;;;;;;;7.90;0.75;;;;;;;;;;4975050;28;100188;-44
2024/04/05 03:00:39;;;;;;;2.63;0.40;;;;;;;;;;4973267;28;100095;-44
2024/04/05 03:03:05;;;;;;;5.18;0.60;;;;;;;;;;4982828;28;99868;-49
2024/04/05 03:05:31;;;;;;;4.57;0.57;;;;;;;;;;4977766;28;100241;-49
2024/04/05 03:07:56;;;;;;;7.60;0.55;;;;;;;;;;4977659;28;100278;-49
2024/04/05 03:10:21;;;;;;;4.43;0.57;;;;;;;;;;4979114;28;99944;-48
2024/04/05 03:12:50;;;;;;;3.58;0.55;;;;;;;;;;4983002;28;101383;-44
2024/04/05 03:15:16;;;;;;;6.17;0.50;;;;;;;;;;4977782;28;100206;-44
2024/04/05 03:17:41;;;;;;;5.50;1.20;;;;;;;;;;4982249;28;100081;-43
2024/04/05 03:20:06;;;;;;;6.00;0.63;;;;;;;;;;4975807;28;100190;-44
2024/04/05 03:22:32;;;;;;;8.55;0.63;;;;;;;;;;4980988;28;100513;-44
2024/04/05 03:24:57;;;;;;;4.95;0.57;;;;;;;;;;4975250;28;100223;-43
2024/04/05 03:27:23;;;;;;;4.75;0.50;;;;;;;;;;4971000;28;100681;-44
2024/04/05 03:29:50;;;;;;;4.90;0.50;;;;;;;;;;4980391;28;101159;-43
2024/04/05 03:32:15;;;;;;;1.88;0.40;;;;;;;;;;4960142;28;101368;-43
2024/04/05 03:34:41;;;;;;;4.15;0.52;;;;;;;;;;4977499;28;100596;-43
2024/04/05 03:37:06;;;;;;;4.20;0.40;;;;;;;;;;4980382;28;99785;-43
2024/04/05 03:39:31;;;;;;;4.90;0.70;;;;;;;;;;4889712;28;103140;-43
2024/04/05 03:41:56;;;;;;;3.10;0.38;;;;;;;;;;4976140;28;99702;-43
2024/04/05 03:44:22;;;;;;;5.05;1.20;;;;;;;;;;4971513;28;101049;-43
2024/04/05 03:46:47;;;;;;;6.60;0.30;;;;;;;;;;4978178;28;103896;-43
2024/04/05 03:49:13;;;;;;;6.38;0.70;;;;;;;;;;4983117;28;99831;-43
2024/04/05 03:51:38;;;;;;;6.80;0.60;;;;;;;;;;4975487;28;100151;-43
2024/04/05 03:54:03;;;;;;;5.32;0.60;;;;;;;;;;4964260;28;103625;-43
2024/04/05 03:56:29;;;;;;;5.65;0.88;;;;;;;;;;4977633;28;100284;-43
2024/04/05 03:58:54;;;;;;;5.03;0.50;;;;;;;;;;4983847;28;100202;-43
2024/04/05 04:01:19;;;;;;;3.85;0.63;;;;;;;;;;4980201;28;100451;-43
2024/04/05 04:03:45;;;;;;;9.25;0.68;;;;;;;;;;4977745;28;100611;-44
2024/04/05 04:06:10;;;;;;;4.13;0.40;;;;;;;;;;4973642;28;100222;-43
2024/04/05 04:08:36;;;;;;;4.88;0.30;;;;;;;;;;4979419;28;100183;-43
2024/04/05 04:11:02;;;;;;;4.10;0.50;;;;;;;;;;4970545;28;101961;-44
2024/04/05 04:13:28;;;;;;;4.28;0.40;;;;;;;;;;4969227;28;100153;-43
2024/04/05 04:15:53;;;;;;;10.18;1.00;;;;;;;;;;4978594;28;100083;-44
2024/04/05 04:18:19;;;;;;;4.03;0.35;;;;;;;;;;4980634;28;100321;-43
2024/04/05 04:20:45;;;;;;;3.83;0.40;;;;;;;;;;4983435;28;100142;-44
2024/04/05 04:23:10;;;;;;;4.88;0.32;;;;;;;;;;4955737;28;102933;-45
2024/04/05 04:25:36;;;;;;;4.22;1.00;;;;;;;;;;4976071;28;100114;-44
2024/04/05 04:28:01;;;;;;;5.10;0.60;;;;;;;;;;4980175;28;101364;-44
2024/04/05 04:30:28;;;;;;;5.57;0.30;;;;;;;;;;4978155;28;100134;-44
2024/04/05 04:32:53;;;;;;;4.93;0.60;;;;;;;;;;4972754;28;101014;-49
2024/04/05 04:35:19;;;;;;;2.03;0.45;;;;;;;;;;4975883;28;100010;-50
2024/04/05 04:37:44;;;;;;;5.28;0.50;;;;;;;;;;4977540;28;100423;-44
2024/04/05 04:40:12;;;;;;;4.72;0.30;;;;;;;;;;4972312;28;101458;-44
2024/04/05 04:42:38;;;;;;;4.75;0.70;;;;;;;;;;4968618;28;100975;-44
2024/04/05 04:45:05;;;;;;;6.07;1.30;;;;;;;;;;4979348;28;100077;-42
2024/04/05 04:47:31;;;;;;;7.60;0.50;;;;;;;;;;4974104;28;100036;-44
2024/04/05 04:49:58;;;;;;;3.00;0.68;;;;;;;;;;4973241;28;102187;-44
2024/04/05 04:52:23;;;;;;;2.92;0.50;;;;;;;;;;4957013;28;102919;-50
2024/04/05 04:54:48;;;;;;;5.50;0.47;;;;;;;;;;4977933;28;99737;-50
2024/04/05 04:57:14;;;;;;;4.13;0.70;;;;;;;;;;4975476;28;100334;-44
2024/04/05 04:59:39;;;;;;;3.67;0.32;;;;;;;;;;4970212;28;100720;-48
2024/04/05 05:02:04;;;;;;;9.30;0.70;;;;;;;;;;4975639;28;99986;-48
2024/04/05 05:04:30;;;;;;;2.88;0.28;;;;;;;;;;4977655;28;103201;-48
2024/04/05 05:06:55;;;;;;;7.30;1.88;;;;;;;;;;4979840;28;99960;-50
2024/04/05 05:09:20;;;;;;;5.00;1.40;;;;;;;;;;4973783;28;100927;-44
2024/04/05 05:11:47;;;;;;;5.65;1.30;;;;;;;;;;4978822;28;101618;-44
2024/04/05 05:14:12;;;;;;;5.03;0.77;;;;;;;;;;4978537;28;100599;-44
2024/04/05 05:16:38;;;;;;;2.97;0.35;;;;;;;;;;4978329;28;100325;-44
2024/04/05 05:19:04;;;;;;;3.70;0.50;;;;;;;;;;4976884;28;102643;-44
2024/04/05 05:21:32;;;;;;;6.97;0.35;;;;;;;;;;4977417;28;100213;-44
2024/04/05 05:23:57;;;;;;;1.33;0.28;;;;;;;;;;4977186;28;100795;-44
2024/04/05 05:26:23;;;;;;;3.90;0.60;;;;;;;;;;4980230;28;100188;-44
2024/04/05 05:28:48;;;;;;;5.47;1.40;;;;;;;;;;4962851;28;103671;-44
2024/04/05 05:31:13;;;;;;;6.72;1.35;;;;;;;;;;4979564;28;100480;-45
2024/04/05 05:33:39;;;;;;;5.70;1.52;;;;;;;;;;4973637;28;102085;-45
2024/04/05 05:36:04;;;;;;;2.63;0.40;;;;;;;;;;4980141;28;104241;-45
2024/04/05 05:38:29;;;;;;;7.82;2.30;;;;;;;;;;4973079;28;101119;-45
2024/04/05 05:40:54;;;;;;;3.28;0.82;;;;;;;;;;4973652;28;100088;-46
2024/04/05 05:43:20;;;;;;;1.67;0.30;;;;;;;;;;4979904;28;105343;-52
2024/04/05 05:45:45;;;;;;;2.17;0.40;;;;;;;;;;4984406;28;100062;-53
2024/04/05 05:48:11;;;;;;;3.65;0.28;;;;;;;;;;4962568;28;102985;-52
2024/04/05 05:50:37;;;;;;;5.45;0.43;;;;;;;;;;4976215;28;100104;-52
2024/04/05 05:53:02;;;;;;;2.72;0.30;;;;;;;;;;4981742;28;101115;-52
2024/04/05 05:55:28;;;;;;;1.85;0.22;;;;;;;;;;4978792;28;100808;-52
2024/04/05 05:57:53;;;;;;;3.53;0.40;;;;;;;;;;4979978;28;100172;-52
2024/04/05 06:00:18;;;;;;;4.03;0.30;;;;;;;;;;4974774;28;100844;-52
2024/04/05 06:02:44;;;;;;;2.97;0.30;;;;;;;;;;4980236;28;100196;-52
2024/04/05 06:05:11;;;;;;;3.83;0.52;;;;;;;;;;4974115;28;100565;-51
2024/04/05 06:07:37;;;;;;;3.58;0.43;;;;;;;;;;4981084;28;100159;-50
2024/04/05 06:10:02;;;;;;;3.67;0.40;;;;;;;;;;4979519;28;100297;-50
2024/04/05 06:12:29;;;;;;;2.58;0.40;;;;;;;;;;4966866;28;100129;-50
2024/04/05 06:14:55;;;;;;;3.30;0.50;;;;;;;;;;4980496;28;100275;-52
2024/04/05 06:17:22;;;;;;;4.30;0.32;;;;;;;;;;4977568;28;101935;-52
2024/04/05 06:19:52;;;;;;;2.78;0.57;;;;;;;;;;4973075;28;100663;-51
2024/04/05 06:22:17;;;;;;;2.85;0.40;;;;;;;;;;4976431;28;100507;-50
2024/04/05 06:24:43;;;;;;;2.85;0.57;;;;;;;;;;4972008;28;100056;-50
2024/04/05 06:27:08;;;;;;;2.92;0.30;;;;;;;;;;4973921;28;99695;-50
2024/04/05 06:29:34;;;;;;;5.82;0.60;;;;;;;;;;4980661;28;100284;-52
2024/04/05 06:31:59;;;;;;;7.07;0.45;;;;;;;;;;4978088;28;99788;-51
2024/04/05 06:34:24;;;;;;;5.45;0.52;;;;;;;;;;4966208;28;100297;-48
2024/04/05 06:36:49;;;;;;;2.38;0.40;;;;;;;;;;4977373;28;100014;-48
2024/04/05 06:39:15;;;;;;;4.50;0.40;;;;;;;;;;4965507;28;100037;-49
2024/04/05 06:41:40;;;;;;;1.50;0.40;;;;;;;;;;4977845;28;101644;-47
2024/04/05 06:44:05;;;;;;;3.08;0.40;;;;;;;;;;4982892;28;100379;-50
2024/04/05 06:46:31;;;;;;;4.53;0.52;;;;;;;;;;4975789;28;100020;-50
2024/04/05 06:48:56;;;;;;;2.50;0.52;;;;;;;;;;4958910;28;103276;-51
2024/04/05 06:51:21;;;;;;;2.90;0.50;;;;;;;;;;4961819;28;101248;-50
2024/04/05 06:53:48;;;;;;;3.03;0.30;;;;;;;;;;4977894;28;100138;-49
2024/04/05 06:56:14;;;;;;;5.35;0.40;;;;;;;;;;4975808;28;100358;-48
2024/04/05 06:58:40;;;;;;;2.90;0.45;;;;;;;;;;4977216;28;102138;-51
2024/04/05 07:01:05;;;;;;;6.25;0.90;;;;;;;;;;4980904;28;100261;-51
2024/04/05 07:03:31;;;;;;;6.75;0.80;;;;;;;;;;4975907;28;101926;-51
2024/04/05 07:06:07;;;;;;;3.85;0.40;;;;;;;;;;4975340;28;100034;-50
2024/04/05 07:08:32;;;;;;;3.45;0.55;;;;;;;;;;4975327;28;100757;-49
2024/04/05 07:10:58;;;;;;;9.13;0.60;;;;;;;;;;4979296;28;100701;-48
2024/04/05 07:13:24;;;;;;;5.22;0.60;;;;;;;;;;4974703;28;99953;-50
2024/04/05 07:15:50;;;;;;;8.77;0.57;;;;;;;;;;4975836;28;100076;-51
2024/04/05 07:18:24;;;;;;;5.95;0.60;;;;;;;;;;4971122;28;99705;-50
2024/04/05 07:20:50;;;;;;;5.10;0.55;;;;;;;;;;4971154;28;100376;-50
2024/04/05 07:23:16;;;;;;;5.28;0.85;;;;;;;;;;4974203;28;100211;-49
2024/04/05 07:25:42;;;;;;;7.75;0.52;;;;;;;;;;4975523;28;100021;-49
2024/04/05 07:28:07;;;;;;;11.25;0.93;;;;;;;;;;4980084;28;102012;-52
2024/04/05 07:30:35;;;;;;;4.78;0.30;;;;;;;;;;4979723;28;101990;-51
2024/04/05 07:33:01;;;;;;;6.68;0.88;;;;;;;;;;4980509;28;101124;-52
2024/04/05 07:35:26;;;;;;;4.43;0.50;;;;;;;;;;4975885;28;101154;-52
2024/04/05 07:37:53;;;;;;;1.27;0.25;;;;;;;;;;4973400;28;99766;-51
2024/04/05 07:40:26;;;;;;;4.90;0.40;;;;;;;;;;4977461;28;100460;-51
2024/04/05 07:42:53;;;;;;;3.47;0.20;;;;;;;;;;4979106;28;100135;-51
2024/04/05 07:45:19;;;;;;;3.88;0.30;;;;;;;;;;4982065;28;100032;-51
2024/04/05 07:47:48;;;;;;;2.00;0.20;;;;;;;;;;4980761;28;100172;-50
2024/04/05 07:50:15;;;;;;;1.83;0.20;;;;;;;;;;4980958;28;100220;-49
2024/04/05 07:52:40;;;;;;;2.58;0.30;;;;;;;;;;4980178;28;100071;-50
2024/04/05 07:55:05;;;;;;;1.15;0.30;;;;;;;;;;4975397;28;100153;-51
2024/04/05 07:57:31;;;;;;;2.63;0.20;;;;;;;;;;4982874;28;100036;-51
2024/04/05 07:59:56;;;;;;;3.38;0.25;;;;;;;;;;4966503;28;99757;-50
2024/04/05 08:02:27;;;;;;;2.97;0.32;;;;;;;;;;4975795;28;100249;-52
2024/04/05 08:04:55;;;;;;;3.90;0.30;;;;;;;;;;4978324;28;100113;-49
2024/04/05 08:07:23;;;;;;;3.35;0.25;;;;;;;;;;4970924;28;100181;-50
2024/04/05 08:09:51;;;;;;;1.50;0.20;;;;;;;;;;4973346;28;100118;-50
2024/04/05 08:12:16;;;;;;;2.83;0.40;;;;;;;;;;4941219;28;99956;-50
2024/04/05 08:14:42;;;;;;;4.85;0.60;;;;;;;;;;4966671;28;100145;-51
2024/04/05 08:17:07;;;;;;;2.85;0.40;;;;;;;;;;4967865;28;100150;-51
2024/04/05 08:19:33;;;;;;;2.58;0.30;;;;;;;;;;4975683;28;100176;-51
2024/04/05 08:21:58;;;;;;;3.83;0.65;;;;;;;;;;4975145;28;100039;-50
2024/04/05 08:24:23;;;;;;;1.70;0.20;;;;;;;;;;4970641;28;101946;-51
2024/04/05 08:26:48;;;;;;;3.85;0.30;;;;;;;;;;4975678;28;100245;-51
2024/04/05 08:29:14;;;;;;;3.60;0.68;;;;;;;;;;4972425;28;100945;-52
2024/04/05 08:31:39;;;;;;;4.00;0.40;;;;;;;;;;4975881;28;100026;-51
2024/04/05 08:34:04;;;;;;;3.22;0.28;;;;;;;;;;4960545;28;102861;-52
2024/04/05 08:36:30;;;;;;;2.17;0.30;;;;;;;;;;4974342;28;102820;-51
2024/04/05 08:38:55;;;;;;;2.80;0.30;;;;;;;;;;4984280;28;99774;-49
2024/04/05 08:41:27;;;;;;;5.95;0.40;;;;;;;;;;4969265;28;100084;-49
2024/04/05 08:43:54;;;;;;;2.25;0.40;;;;;;;;;;4972786;28;99650;-51
2024/04/05 08:46:20;;;;;;;1.58;0.30;;;;;;;;;;4973982;28;100229;-51
2024/04/05 08:48:48;;;;;;;4.10;0.22;;;;;;;;;;4979915;28;100198;-51
2024/04/05 08:51:15;;;;;;;2.30;0.20;;;;;;;;;;4972181;28;100206;-51
2024/04/05 08:53:41;;;;;;;1.60;0.20;;;;;;;;;;4976533;28;101810;-51
2024/04/05 08:56:06;;;;;;;2.47;0.28;;;;;;;;;;4951175;28;101385;-51
2024/04/05 08:58:31;;;;;;;7.40;0.68;;;;;;;;;;4981887;28;100031;-51
2024/04/05 09:00:57;;;;;;;2.00;0.25;;;;;;;;;;4984199;28;100320;-51
2024/04/05 09:03:22;;;;;;;2.97;0.30;;;;;;;;;;4970303;28;100541;-50
2024/04/05 09:05:48;;;;;;;3.05;0.50;;;;;;;;;;4976167;28;100156;-50
2024/04/05 09:08:14;;;;;;;2.58;0.20;;;;;;;;;;4974589;28;101055;-52
2024/04/05 09:10:48;;;;;;;3.70;0.30;;;;;;;;;;4974381;28;99941;-54
2024/04/05 09:13:13;;;;;;;2.92;1.00;;;;;;;;;;4981643;28;100170;-51
2024/04/05 09:15:40;;;;;;;2.25;0.20;;;;;;;;;;4985837;28;100175;-52
2024/04/05 09:18:05;;;;;;;1.95;0.40;;;;;;;;;;4975190;28;99897;-49
2024/04/05 09:20:30;;;;;;;1.75;0.20;;;;;;;;;;4970480;28;100235;-49
2024/04/05 09:23:04;;;;;;;3.95;0.55;;;;;;;;;;4980475;28;100425;-51
2024/04/05 09:25:30;;;;;;;2.00;0.40;;;;;;;;;;4983910;28;100061;-51
2024/04/05 09:28:10;;;;;;;4.43;0.50;;;;;;;;;;4983003;28;100406;-51
2024/04/05 09:30:36;;;;;;;4.47;0.30;;;;;;;;;;4982879;28;100036;-52
2024/04/05 09:33:02;;;;;;;1.67;0.20;;;;;;;;;;4977938;28;100591;-50
2024/04/05 09:35:30;;;;;;;1.73;0.20;;;;;;;;;;4972826;28;101360;-51
2024/04/05 09:37:55;;;;;;;2.10;0.50;;;;;;;;;;4977198;28;100194;-50
2024/04/05 09:40:23;;;;;;;3.45;0.57;;;;;;;;;;4976823;28;100236;-50
2024/04/05 09:42:51;;;;;;;2.17;0.30;;;;;;;;;;4966371;28;102683;-53
2024/04/05 09:45:17;;;;;;;4.15;0.82;;;;;;;;;;4986443;28;99950;-53
2024/04/05 09:47:43;;;;;;;4.95;0.30;;;;;;;;;;4966311;28;101520;-53
2024/04/05 09:50:08;;;;;;;2.28;0.20;;;;;;;;;;4977369;28;101009;-53
2024/04/05 09:52:40;;;;;;;3.58;0.20;;;;;;;;;;4981368;28;100422;-54
2024/04/05 09:55:09;;;;;;;2.10;0.20;;;;;;;;;;4984230;28;100562;-51
2024/04/05 09:57:36;;;;;;;2.58;0.20;;;;;;;;;;4977378;28;100153;-52
2024/04/05 10:00:14;;;;;;;2.33;0.25;;;;;;;;;;4979794;28;100418;-51
2024/04/05 10:02:46;;;;;;;3.42;0.22;;;;;;;;;;4982145;28;100302;-51
2024/04/05 10:05:21;;;;;;;2.67;0.35;;;;;;;;;;4983294;28;99925;-51
2024/04/05 10:07:47;;;;;;;1.75;0.20;;;;;;;;;;4969866;28;100274;-50
2024/04/05 10:10:12;;;;;;;3.17;0.20;;;;;;;;;;4973973;28;99735;-51
2024/04/05 10:12:38;;;;;;;2.65;0.30;;;;;;;;;;4982415;28;100346;-52
2024/04/05 10:15:04;;;;;;;2.65;0.20;;;;;;;;;;4983076;28;100145;-51
2024/04/05 10:17:29;;;;;;;2.55;0.95;;;;;;;;;;4966469;28;99763;-50
2024/04/05 10:20:06;;;;;;;3.70;0.32;;;;;;;;;;4984479;28;100166;-51
2024/04/05 10:22:32;;;;;;;6.57;0.47;;;;;;;;;;4973575;28;102661;-54
2024/04/05 10:24:58;;;;;;;2.75;0.20;;;;;;;;;;4978705;28;99724;-51
2024/04/05 10:27:25;;;;;;;3.50;0.30;;;;;;;;;;4981195;28;100319;-52
2024/04/05 10:30:03;;;;;;;2.63;0.17;;;;;;;;;;4983760;28;99952;-54
2024/04/05 10:32:29;;;;;;;2.53;0.20;;;;;;;;;;4980053;28;100196;-51
2024/04/05 10:35:08;;;;;;;3.70;1.15;;;;;;;;;;4975762;28;100105;-52
2024/04/05 10:37:35;;;;;;;1.60;0.20;;;;;;;;;;4978184;28;100790;-53
2024/04/05 10:40:06;;;;;;;2.17;0.20;;;;;;;;;;4984210;28;100330;-51
2024/04/05 10:42:32;;;;;;;1.17;0.20;;;;;;;;;;4982014;28;100092;-52
2024/04/05 10:44:58;;;;;;;3.00;0.30;;;;;;;;;;4985680;28;99739;-54
2024/04/05 10:47:25;;;;;;;2.85;0.90;;;;;;;;;;4984180;28;100240;-51
2024/04/05 10:50:07;;;;;;;2.17;0.25;;;;;;;;;;4987520;28;100117;-52
2024/04/05 10:52:36;;;;;;;1.42;0.10;;;;;;;;;;4981132;28;100278;-52
2024/04/05 10:55:12;;;;;;;0.98;0.10;;;;;;;;;;4979589;28;100118;-51
2024/04/05 10:57:38;;;;;;;1.95;0.20;;;;;;;;;;4980975;28;101964;-52
2024/04/05 11:00:11;;;;;;;3.08;0.20;;;;;;;;;;4980094;28;100100;-52
2024/04/05 11:02:39;;;;;;;1.20;0.10;;;;;;;;;;4983150;28;100358;-52
2024/04/05 11:05:14;;;;;;;1.35;0.20;;;;;;;;;;4981173;28;99991;-49
2024/04/05 11:07:44;;;;;;;1.27;0.20;;;;;;;;;;4978137;28;100219;-49
2024/04/05 11:10:23;;;;;;;1.30;0.20;;;;;;;;;;4965214;28;101277;-49
2024/04/05 11:12:49;;;;;;;2.07;0.20;;;;;;;;;;4984854;28;99977;-50
2024/04/05 11:15:18;;;;;;;2.10;0.10;;;;;;;;;;4975787;28;100108;-50
2024/04/05 11:17:46;;;;;;;;;;;;;;;;;;4980706;28;101392;-50
2024/04/05 11:20:13;;;;;;;1.80;0.20;;;;;;;;;;4982336;28;100198;-51
2024/04/05 11:22:39;;;;;;;0.60;0.10;;;;;;;;;;4976881;28;100951;-51
2024/04/05 11:25:06;;;;;;;1.05;0.10;;;;;;;;;;4983017;28;100191;-49
2024/04/05 11:27:32;;;;;;;2.25;0.20;;;;;;;;;;4962500;28;102874;-48
2024/04/05 11:29:57;;;;;;;1.15;0.20;;;;;;;;;;4982599;28;100100;-49
2024/04/05 11:32:31;;;;;;;1.45;0.40;;;;;;;;;;4982295;28;100043;-51
2024/04/05 11:35:00;;;;;;;0.98;0.20;;;;;;;;;;4986455;28;100197;-51
2024/04/05 11:37:26;;;;;;;3.15;0.10;;;;;;;;;;4980949;28;100094;-49
2024/04/05 11:39:51;;;;;;;1.00;0.20;;;;;;;;;;4979721;28;100180;-50
2024/04/05 11:42:17;;;;;;;1.40;0.15;;;;;;;;;;4978500;28;101191;-50
2024/04/05 11:44:42;;;;;;;1.70;0.35;;;;;;;;;;4981153;28;100029;-51
2024/04/05 11:47:07;;;;;;;1.85;0.10;;;;;;;;;;4976933;28;100329;-50
2024/04/05 11:49:33;;;;;;;2.92;0.13;;;;;;;;;;4980210;28;100122;-51
2024/04/05 11:51:59;;;;;;;2.15;0.20;;;;;;;;;;4982238;28;100154;-50
2024/04/05 11:54:24;;;;;;;0.82;0.13;;;;;;;;;;4980522;28;102061;-51
2024/04/05 11:56:49;;;;;;;1.23;0.10;;;;;;;;;;4983499;28;100067;-52
2024/04/05 11:59:15;;;;;;;1.60;0.10;;;;;;;;;;4973505;28;102834;-47
2024/04/05 12:01:40;;;;;;;2.25;0.17;;;;;;;;;;4973626;28;103000;-49
2024/04/05 12:04:07;;;;;;;1.45;0.15;;;;;;;;;;4977919;28;100979;-51
2024/04/05 12:06:36;;;;;;;3.08;0.10;;;;;;;;;;4980528;28;100179;-51
2024/04/05 12:09:03;;;;;;;1.70;0.10;;;;;;;;;;4981079;28;102056;-51
2024/04/05 12:11:30;;;;;;;4.80;1.27;;;;;;;;;;4981704;28;99974;-53
2024/04/05 12:13:55;;;;;;;2.08;0.20;;;;;;;;;;4977238;28;100316;-52
2024/04/05 12:16:20;;;;;;;1.77;0.10;;;;;;;;;;4982675;28;100451;-53
2024/04/05 12:18:46;;;;;;;0.80;0.40;;;;;;;;;;4980139;28;101538;-51
2024/04/05 12:21:11;;;;;;;0.93;0.10;;;;;;;;;;4980068;28;100467;-53
2024/04/05 12:23:36;;;;;;;2.60;0.30;;;;;;;;;;4976508;28;100252;-50
2024/04/05 12:26:02;;;;;;;0.60;0.20;;;;;;;;;;4979410;28;100345;-51
2024/04/05 12:28:27;;;;;;;2.90;0.22;;;;;;;;;;4980742;28;100805;-50
2024/04/05 12:30:53;;;;;;;3.28;0.20;;;;;;;;;;4976469;28;100203;-50
2024/04/05 12:33:19;;;;;;;2.75;0.20;;;;;;;;;;4980350;28;100321;-50
2024/04/05 12:35:58;;;;;;;2.28;0.50;;;;;;;;;;4976753;28;100754;-51
2024/04/05 12:38:33;;;;;;;0.45;0.10;;;;;;;;;;4981860;28;99963;-53
2024/04/05 12:40:58;;;;;;;2.92;0.55;;;;;;;;;;4977199;28;103605;-51
2024/04/05 12:43:24;;;;;;;3.08;0.17;;;;;;;;;;4979360;28;100140;-51
2024/04/05 12:46:00;;;;;;;2.25;0.28;;;;;;;;;;4976223;28;100167;-51
2024/04/05 12:48:26;;;;;;;1.50;0.10;;;;;;;;;;4976888;28;100331;-50
2024/04/05 12:51:02;;;;;;;2.97;0.20;;;;;;;;;;4978288;28;101919;-51
2024/04/05 12:53:28;;;;;;;1.60;0.13;;;;;;;;;;4976337;28;100329;-49
2024/04/05 12:56:01;;;;;;;2.25;0.20;;;;;;;;;;4976304;28;100273;-51
2024/04/05 12:58:30;;;;;;;2.47;0.15;;;;;;;;;;4970663;28;101859;-50
2024/04/05 13:00:58;;;;;;;1.38;0.20;;;;;;;;;;4981299;28;101826;-50
2024/04/05 13:03:24;;;;;;;1.52;0.10;;;;;;;;;;4973686;28;101151;-47
2024/04/05 13:05:49;;;;;;;2.00;0.20;;;;;;;;;;4979234;28;100163;-47
2024/04/05 13:08:15;;;;;;;0.82;0.10;;;;;;;;;;4980687;28;101913;-49
2024/04/05 13:10:40;;;;;;;1.83;0.10;;;;;;;;;;4981564;28;99883;-50
2024/04/05 13:13:05;;;;;;;3.63;0.30;;;;;;;;;;4972595;28;100294;-49
2024/04/05 13:15:39;;;;;;;1.13;0.13;;;;;;;;;;4977201;28;101164;-48
2024/04/05 13:18:06;;;;;;;2.00;0.20;;;;;;;;;;4981234;28;102149;-46
2024/04/05 13:20:32;;;;;;;1.17;0.10;;;;;;;;;;4983454;28;100175;-46
2024/04/05 13:22:59;;;;;;;4.10;0.20;;;;;;;;;;4982977;28;100142;-50
2024/04/05 13:25:26;;;;;;;3.78;0.20;;;;;;;;;;4982155;28;100665;-49
2024/04/05 13:27:51;;;;;;;2.42;0.20;;;;;;;;;;4981683;28;100749;-50
2024/04/05 13:30:17;;;;;;;1.20;0.73;;;;;;;;;;4981099;28;100023;-52
2024/04/05 13:32:42;;;;;;;2.13;0.20;;;;;;;;;;4980056;28;100319;-53
2024/04/05 13:35:07;;;;;;;4.88;0.50;;;;;;;;;;4981085;28;101926;-51
2024/04/05 13:37:33;;;;;;;6.07;0.70;;;;;;;;;;4981578;28;99756;-51
2024/04/05 13:39:58;;;;;;;3.08;0.30;;;;;;;;;;4981375;28;100243;-54
2024/04/05 13:42:23;;;;;;;4.03;0.30;;;;;;;;;;4978796;28;100334;-50
2024/04/05 13:44:52;;;;;;;3.13;0.22;;;;;;;;;;4984963;28;99761;-51
2024/04/05 13:47:21;;;;;;;2.63;0.40;;;;;;;;;;4972366;28;103412;-52
2024/04/05 13:49:49;;;;;;;4.82;0.40;;;;;;;;;;4975355;28;100192;-51
2024/04/05 13:52:14;;;;;;;1.80;0.30;;;;;;;;;;4977360;28;100501;-50
2024/04/05 13:54:40;;;;;;;2.63;0.28;;;;;;;;;;4951780;28;102637;-50
2024/04/05 13:57:05;;;;;;;1.50;0.30;;;;;;;;;;4974771;28;100692;-50
2024/04/05 13:59:31;;;;;;;5.90;0.38;;;;;;;;;;4975793;28;101002;-48
2024/04/05 14:01:57;;;;;;;2.55;0.30;;;;;;;;;;4980558;28;101152;-48
2024/04/05 14:04:22;;;;;;;2.45;0.30;;;;;;;;;;4985649;28;99657;-50
2024/04/05 14:06:47;;;;;;;2.67;0.63;;;;;;;;;;4978916;28;103520;-50
2024/04/05 14:09:13;;;;;;;3.60;0.30;;;;;;;;;;4978088;28;100107;-50
2024/04/05 14:11:38;;;;;;;6.45;0.38;;;;;;;;;;4963604;28;101346;-50
2024/04/05 14:14:04;;;;;;;3.78;0.43;;;;;;;;;;4977663;28;100211;-48
2024/04/05 14:16:30;;;;;;;4.28;0.47;;;;;;;;;;4985165;28;99671;-48
2024/04/05 14:18:55;;;;;;;2.70;0.25;;;;;;;;;;4985381;28;100194;-50
2024/04/05 14:21:22;;;;;;;3.72;0.30;;;;;;;;;;4984076;28;101417;-50
2024/04/05 14:23:47;;;;;;;1.98;0.22;;;;;;;;;;4984681;28;100600;-50
2024/04/05 14:26:13;;;;;;;3.22;0.38;;;;;;;;;;4988328;28;100870;-50